Time;durP1;ratioP1;P1;durP2;ratioP2;P2;SDS_P1;SDS_P2;PMS_P1;PMS_P2;Temp;Humidity;BMP_temperature;BMP_pressure;BME280_temperature;BME280_humidity;BME280_pressure;Samples;Min_cycle;Max_cycle;Signal;HPM_P1;HPM_P2
2022/04/12 00:00:05;;;;;;;5.93;2.90;;;14.20;74.70;;;;;;6249796;22;20228;-88
2022/04/12 00:02:31;;;;;;;6.10;3.50;;;14.20;74.20;;;;;;6250069;22;20152;-88
2022/04/12 00:04:56;;;;;;;5.80;3.03;;;14.30;73.60;;;;;;6250153;22;20485;-88
2022/04/12 00:07:22;;;;;;;5.07;2.80;;;14.30;74.30;;;;;;6250267;22;20149;-87
2022/04/12 00:09:47;;;;;;;3.60;2.30;;;14.30;74.00;;;;;;6250248;22;20179;-86
2022/04/12 00:12:16;;;;;;;5.43;3.00;;;14.20;74.30;;;;;;6250454;22;20148;-88
2022/04/12 00:14:42;;;;;;;3.30;2.50;;;14.10;75.30;;;;;;6254347;22;20586;-87
2022/04/12 00:19:52;;;;;;;4.47;2.60;;;14.10;75.30;;;;;;6278343;22;20275;-88
2022/04/12 00:22:18;;;;;;;4.80;2.80;;;14.20;75.40;;;;;;6249903;22;20150;-87
2022/04/12 00:24:43;;;;;;;3.80;2.20;;;14.40;75.20;;;;;;6250468;22;20594;-88
2022/04/12 00:27:09;;;;;;;5.87;2.33;;;14.30;75.10;;;;;;6249671;22;20538;-88
2022/04/12 00:29:34;;;;;;;4.97;2.77;;;14.10;75.50;;;;;;6249790;22;20677;-88
2022/04/12 00:32:00;;;;;;;5.13;2.60;;;14.00;75.80;;;;;;6276645;22;20149;-88
2022/04/12 00:34:26;;;;;;;3.57;2.50;;;13.90;76.70;;;;;;6276756;22;20147;-87
2022/04/12 00:36:51;;;;;;;3.93;2.30;;;13.70;77.00;;;;;;6276874;22;20148;-88
2022/04/12 00:39:17;;;;;;;6.83;2.47;;;13.60;77.10;;;;;;6249768;22;20251;-87
2022/04/12 00:41:43;;;;;;;4.07;2.10;;;13.60;76.80;;;;;;6249343;22;20176;-88
2022/04/12 00:44:08;;;;;;;4.87;2.67;;;13.60;76.70;;;;;;6250277;22;20153;-87
2022/04/12 00:46:35;;;;;;;3.27;2.37;;;13.60;76.80;;;;;;6249569;22;20154;-86
2022/04/12 00:49:00;;;;;;;4.47;2.90;;;13.70;76.50;;;;;;6250297;22;20177;-87
2022/04/12 00:51:27;;;;;;;3.37;2.20;;;13.80;76.20;;;;;;6251248;22;20150;-87
2022/04/12 00:53:53;;;;;;;3.33;2.03;;;13.90;76.00;;;;;;6251929;22;20146;-87
2022/04/12 00:56:18;;;;;;;4.13;2.20;;;14.10;74.90;;;;;;6251607;22;20144;-88
2022/04/12 00:58:48;;;;;;;3.27;2.40;;;14.20;74.50;;;;;;6251234;22;20161;-86
2022/04/12 01:01:14;;;;;;;3.77;2.33;;;14.30;73.80;;;;;;6250411;22;20191;-82
2022/04/12 01:03:39;;;;;;;3.17;2.30;;;14.40;73.20;;;;;;6250965;22;20150;-88
2022/04/12 01:06:05;;;;;;;5.20;3.47;;;14.40;73.20;;;;;;6251520;22;20167;-87
2022/04/12 01:08:31;;;;;;;3.50;2.53;;;14.30;74.10;;;;;;6251387;22;20147;-88
2022/04/12 01:10:59;;;;;;;4.10;2.63;;;14.50;72.80;;;;;;6251221;22;20154;-88
2022/04/12 01:13:24;;;;;;;4.53;2.73;;;14.50;72.80;;;;;;6251422;22;20187;-87
2022/04/12 01:15:50;;;;;;;5.43;2.87;;;14.50;73.00;;;;;;6278343;22;20138;-87
2022/04/12 01:18:16;;;;;;;3.63;2.33;;;14.50;72.90;;;;;;6251457;22;20150;-87
2022/04/12 01:20:41;;;;;;;5.07;2.53;;;14.50;73.00;;;;;;6251075;22;20188;-88
2022/04/12 01:23:14;;;;;;;4.70;2.47;;;14.50;73.20;;;;;;6278328;22;20140;-87
2022/04/12 01:25:40;;;;;;;3.33;2.70;;;14.50;73.00;;;;;;6251261;22;20241;-88
2022/04/12 01:28:10;;;;;;;5.20;2.57;;;14.30;73.90;;;;;;6276944;22;20180;-87
2022/04/12 01:30:37;;;;;;;4.40;2.50;;;14.30;74.00;;;;;;6251394;22;20160;-87
2022/04/12 01:33:04;;;;;;;5.07;2.63;;;14.40;73.90;;;;;;6251400;22;20154;-87
2022/04/12 01:35:30;;;;;;;3.13;2.70;;;14.30;73.80;;;;;;6251085;22;20162;-86
2022/04/12 01:37:55;;;;;;;3.87;2.50;;;14.20;74.30;;;;;;6250517;22;20218;-86
2022/04/12 01:40:21;;;;;;;3.70;2.80;;;14.10;74.60;;;;;;6276565;22;20191;-87
2022/04/12 01:42:47;;;;;;;3.50;2.57;;;14.10;74.40;;;;;;6251285;22;20241;-87
2022/04/12 01:45:13;;;;;;;6.13;2.60;;;14.10;74.30;;;;;;6278242;22;20165;-88
2022/04/12 01:47:38;;;;;;;5.70;2.70;;;14.20;74.30;;;;;;6250967;22;20232;-88
2022/04/12 01:50:06;;;;;;;4.03;2.53;;;14.00;75.10;;;;;;6251419;22;20225;-87
2022/04/12 01:52:33;;;;;;;3.90;2.57;;;14.00;74.80;;;;;;6277745;22;20222;-87
2022/04/12 01:54:58;;;;;;;6.47;2.70;;;14.00;74.80;;;;;;6214216;22;20445;-86
2022/04/12 01:57:24;;;;;;;4.23;2.50;;;14.00;74.80;;;;;;6251083;22;20160;-87
2022/04/12 01:59:50;;;;;;;4.47;2.20;;;13.80;75.50;;;;;;6278237;22;20176;-86
2022/04/12 02:02:15;;;;;;;3.60;2.77;;;13.70;76.00;;;;;;6250933;22;20172;-87
2022/04/12 02:04:41;;;;;;;5.33;2.63;;;13.50;76.70;;;;;;6251104;22;20199;-88
2022/04/12 02:07:07;;;;;;;4.87;2.70;;;13.50;76.80;;;;;;6277474;22;20157;-88
2022/04/12 02:09:33;;;;;;;3.70;2.60;;;13.70;76.70;;;;;;6250796;22;20178;-88
2022/04/12 02:11:58;;;;;;;3.30;2.37;;;13.60;77.10;;;;;;6250719;22;20151;-88
2022/04/12 02:14:25;;;;;;;3.77;2.30;;;13.50;77.60;;;;;;6251147;22;20185;-87
2022/04/12 02:16:51;;;;;;;3.60;2.40;;;13.40;78.20;;;;;;6250998;22;20157;-87
2022/04/12 02:19:16;;;;;;;5.20;2.60;;;13.40;78.70;;;;;;6277799;22;20156;-88
2022/04/12 02:21:42;;;;;;;4.43;2.63;;;13.30;79.60;;;;;;6250308;22;20162;-86
2022/04/12 02:24:08;;;;;;;4.43;2.40;;;13.50;79.00;;;;;;6277795;22;20494;-88
2022/04/12 02:26:34;;;;;;;3.30;2.50;;;13.20;79.40;;;;;;6250954;22;20184;-88
2022/04/12 02:28:59;;;;;;;3.97;2.33;;;13.20;79.60;;;;;;6250899;22;20308;-88
2022/04/12 02:31:25;;;;;;;3.70;2.67;;;13.20;79.40;;;;;;6250681;22;20181;-87
2022/04/12 02:33:51;;;;;;;3.17;2.50;;;13.00;80.30;;;;;;6250967;22;20454;-86
2022/04/12 02:36:16;;;;;;;5.30;2.80;;;13.10;81.00;;;;;;6250331;22;20521;-88
2022/04/12 02:38:42;;;;;;;5.97;2.77;;;13.10;80.50;;;;;;6250223;22;20161;-87
2022/04/12 02:41:08;;;;;;;4.33;2.30;;;13.30;80.90;;;;;;6250571;22;20189;-88
2022/04/12 02:43:34;;;;;;;4.37;2.30;;;13.10;80.40;;;;;;6277711;22;20567;-86
2022/04/12 02:46:01;;;;;;;3.83;2.70;;;13.00;80.60;;;;;;6250175;22;20186;-88
2022/04/12 02:48:27;;;;;;;5.50;2.50;;;13.10;80.50;;;;;;6242476;22;20528;-88
2022/04/12 02:50:53;;;;;;;4.00;2.40;;;13.10;80.70;;;;;;6275858;22;20196;-86
2022/04/12 02:53:19;;;;;;;6.87;2.73;;;13.20;80.00;;;;;;6250295;22;20154;-88
2022/04/12 02:55:44;;;;;;;5.17;2.80;;;13.30;79.50;;;;;;6250622;22;20174;-86
2022/04/12 02:58:10;;;;;;;5.20;2.80;;;13.30;79.40;;;;;;6250468;22;20204;-88
2022/04/12 03:00:35;;;;;;;2.80;2.50;;;13.30;79.20;;;;;;6250307;22;20192;-87
2022/04/12 03:03:01;;;;;;;5.50;2.60;;;13.50;78.50;;;;;;6277878;22;20210;-88
2022/04/12 03:05:27;;;;;;;2.80;2.40;;;13.20;79.50;;;;;;6250008;22;20242;-87
2022/04/12 03:07:52;;;;;;;4.70;2.60;;;13.00;80.20;;;;;;6250141;22;20161;-88
2022/04/12 03:10:18;;;;;;;4.17;2.67;;;13.00;81.10;;;;;;6250304;22;20593;-87
2022/04/12 03:12:43;;;;;;;4.37;2.37;;;12.90;81.90;;;;;;6250179;22;20161;-88
2022/04/12 03:15:09;;;;;;;3.73;2.57;;;12.70;82.90;;;;;;6250339;22;20481;-88
2022/04/12 03:17:35;;;;;;;2.87;2.47;;;12.70;83.40;;;;;;6250412;22;20227;-88
2022/04/12 03:20:01;;;;;;;3.10;2.07;;;12.90;82.60;;;;;;6249928;22;20204;-88
2022/04/12 03:22:26;;;;;;;4.50;2.40;;;12.70;83.30;;;;;;6250740;22;20643;-85
2022/04/12 03:24:52;;;;;;;5.63;2.70;;;12.70;83.50;;;;;;6275799;22;20228;-88
2022/04/12 03:27:18;;;;;;;6.03;2.50;;;12.50;84.90;;;;;;6249740;22;20172;-88
2022/04/12 03:29:44;;;;;;;5.93;2.70;;;12.40;85.50;;;;;;6249955;22;20154;-87
2022/04/12 03:32:10;;;;;;;6.27;2.43;;;12.40;85.90;;;;;;6250321;22;20155;-89
2022/04/12 03:34:38;;;;;;;3.43;2.77;;;12.30;85.00;;;;;;6275277;22;20608;-87
2022/04/12 03:37:04;;;;;;;4.37;2.43;;;12.50;84.60;;;;;;6250388;22;20150;-88
2022/04/12 03:39:29;;;;;;;4.37;2.40;;;12.40;85.10;;;;;;6277163;22;20164;-87
2022/04/12 03:41:55;;;;;;;4.90;2.60;;;12.30;86.30;;;;;;6277452;22;20149;-86
2022/04/12 03:44:20;;;;;;;5.50;2.53;;;12.10;86.70;;;;;;6250163;22;20150;-88
2022/04/12 03:46:46;;;;;;;5.10;3.07;;;12.10;87.20;;;;;;6275762;22;20212;-88
2022/04/12 03:49:12;;;;;;;5.50;2.57;;;12.10;88.30;;;;;;6249644;22;20187;-88
2022/04/12 03:51:37;;;;;;;5.13;2.77;;;12.00;88.40;;;;;;6250107;22;20153;-88
2022/04/12 03:54:04;;;;;;;4.37;2.40;;;12.10;88.40;;;;;;6275844;22;20193;-88
2022/04/12 03:56:30;;;;;;;3.97;2.47;;;12.10;87.40;;;;;;6249961;22;20153;-86
2022/04/12 03:58:59;;;;;;;5.07;2.60;;;12.10;87.60;;;;;;6249954;22;20236;-87
2022/04/12 04:01:25;;;;;;;4.53;2.47;;;12.10;87.40;;;;;;6276755;22;20515;-86
2022/04/12 04:03:51;;;;;;;5.77;2.73;;;12.10;88.70;;;;;;6275096;22;20160;-88
2022/04/12 04:06:17;;;;;;;7.20;2.80;;;12.00;89.40;;;;;;6276707;22;20146;-88
2022/04/12 04:08:42;;;;;;;4.10;3.03;;;11.80;89.30;;;;;;6276899;22;20184;-88
2022/04/12 04:11:08;;;;;;;5.80;3.23;;;11.90;89.10;;;;;;6249945;22;20153;-87
2022/04/12 04:13:36;;;;;;;6.20;3.20;;;12.10;88.50;;;;;;6250190;22;20153;-86
2022/04/12 04:16:03;;;;;;;2.93;2.50;;;12.20;88.10;;;;;;6249952;22;20523;-87
2022/04/12 04:18:28;;;;;;;6.60;2.70;;;12.00;89.10;;;;;;6249652;22;20151;-88
2022/04/12 04:20:54;;;;;;;5.67;2.80;;;11.90;89.70;;;;;;6249726;22;20616;-88
2022/04/12 04:23:21;;;;;;;8.23;2.80;;;11.80;90.10;;;;;;6250224;22;20154;-87
2022/04/12 04:25:47;;;;;;;7.53;2.73;;;11.80;90.50;;;;;;6276004;22;20171;-87
2022/04/12 04:28:12;;;;;;;5.87;2.77;;;11.80;90.30;;;;;;6251831;22;20226;-87
2022/04/12 04:42:12;;;;;;;;;;;;;;;;;;;;;
2022/04/12 07:53:28;;;;;;;5.37;2.00;;;16.30;82.30;;;;;;5202238;23;20240;-91
2022/04/12 07:55:53;;;;;;;4.23;2.17;;;16.20;82.80;;;;;;4953756;29;20175;-92
2022/04/12 07:58:19;;;;;;;4.93;2.70;;;16.00;83.20;;;;;;4938153;29;20330;-91
2022/04/12 08:00:45;;;;;;;5.40;2.50;;;16.00;83.60;;;;;;4939821;29;20726;-89
2022/04/12 08:03:10;;;;;;;4.47;1.87;;;16.10;83.60;;;;;;4937786;29;20176;-91
2022/04/12 08:05:36;;;;;;;4.00;2.30;;;16.20;83.30;;;;;;4937939;29;20175;-92
2022/04/12 08:08:02;;;;;;;4.10;1.90;;;16.20;83.30;;;;;;4937851;29;20636;-91
2022/04/12 08:10:29;;;;;;;6.37;2.13;;;16.20;83.60;;;;;;4937753;29;20199;-92
2022/04/12 08:12:55;;;;;;;4.83;2.37;;;16.50;82.70;;;;;;4938067;29;20168;-91
2022/04/12 08:15:22;;;;;;;4.73;2.20;;;16.70;82.50;;;;;;4937519;29;20167;-91
2022/04/12 08:17:48;;;;;;;4.10;1.87;;;16.80;82.30;;;;;;4937875;29;20182;-91
2022/04/12 08:20:13;;;;;;;7.20;2.57;;;16.80;82.50;;;;;;4937548;29;20668;-90
2022/04/12 08:22:40;;;;;;;6.13;2.23;;;16.90;82.00;;;;;;4937644;29;20187;-91
2022/04/12 08:25:07;;;;;;;5.87;2.43;;;16.90;82.70;;;;;;4937410;29;20262;-91
2022/04/12 08:27:33;;;;;;;6.10;1.80;;;17.00;81.90;;;;;;4937481;29;20276;-91
2022/04/12 08:29:58;;;;;;;4.00;1.80;;;17.30;81.30;;;;;;4937699;29;20204;-91
2022/04/12 08:32:24;;;;;;;4.20;1.67;;;17.30;81.50;;;;;;4937474;29;20173;-91
2022/04/12 08:34:50;;;;;;;6.63;1.93;;;17.30;81.60;;;;;;4937160;29;20183;-91
2022/04/12 08:37:15;;;;;;;7.77;2.00;;;17.50;80.40;;;;;;4937210;29;20164;-91
2022/04/12 08:39:41;;;;;;;4.37;2.17;;;17.50;80.90;;;;;;4937392;29;20199;-91
2022/04/12 08:42:07;;;;;;;5.83;2.13;;;17.40;81.50;;;;;;4937419;29;20176;-92
2022/04/12 08:44:36;;;;;;;2.80;1.50;;;17.40;81.60;;;;;;4937302;29;20195;-91
2022/04/12 08:47:06;;;;;;;6.27;1.70;;;17.60;81.90;;;;;;4937164;29;20189;-91
2022/04/12 08:49:34;;;;;;;2.93;1.70;;;17.70;80.90;;;;;;4937161;29;20192;-92
2022/04/12 08:52:00;;;;;;;3.30;1.50;;;17.80;80.60;;;;;;4936595;29;20596;-91
2022/04/12 08:54:27;;;;;;;4.13;1.87;;;17.80;80.90;;;;;;4936711;29;20168;-90
2022/04/12 08:56:53;;;;;;;4.60;2.23;;;18.10;79.70;;;;;;4936889;29;20708;-91
2022/04/12 08:59:19;;;;;;;3.67;1.43;;;18.20;79.40;;;;;;4937196;29;20208;-91
2022/04/12 09:01:48;;;;;;;2.10;1.57;;;18.30;79.40;;;;;;4936616;29;20208;-91
2022/04/12 09:04:13;;;;;;;3.97;1.60;;;18.40;79.80;;;;;;4937095;29;20176;-91
2022/04/12 11:14:45;;;;;;;3.57;1.30;;;23.70;66.60;;;;;;5999793;23;20178;-92
2022/04/12 11:17:14;;;;;;;4.30;1.47;;;24.50;65.00;;;;;;4934581;29;20196;-95
2022/04/12 11:19:44;;;;;;;5.37;1.60;;;25.00;64.00;;;;;;4934791;29;20302;-94
2022/04/12 11:22:15;;;;;;;4.10;1.33;;;25.60;62.70;;;;;;4935328;29;20168;-93
2022/04/12 11:24:41;;;;;;;8.53;1.33;;;25.70;61.70;;;;;;4935472;29;20235;-95
2022/04/12 11:27:08;;;;;;;3.27;1.23;;;26.10;60.70;;;;;;4937892;29;20175;-90
2022/04/12 11:29:35;;;;;;;4.17;1.40;;;26.40;60.50;;;;;;4939619;29;20707;-92
2022/04/12 11:32:01;;;;;;;4.03;1.63;;;26.50;59.70;;;;;;4938597;29;20243;-95
2022/04/12 11:34:27;;;;;;;4.93;1.30;;;26.50;59.70;;;;;;4938563;29;20327;-94
2022/04/12 11:37:00;;;;;;;5.10;1.30;;;26.80;59.20;;;;;;4938678;29;20172;-95
2022/04/12 11:39:30;;;;;;;7.07;1.60;;;26.60;59.10;;;;;;4938262;29;20653;-93
2022/04/12 11:42:01;;;;;;;2.37;1.20;;;26.80;59.20;;;;;;4938857;29;20184;-93
2022/04/12 11:44:27;;;;;;;3.30;1.37;;;26.60;58.90;;;;;;4938158;29;20180;-92
2022/04/12 11:47:04;;;;;;;3.60;1.40;;;26.80;58.90;;;;;;4938218;29;20715;-93
2022/04/12 11:49:36;;;;;;;5.30;1.43;;;27.20;58.60;;;;;;4938257;29;20583;-93
2022/04/12 11:52:05;;;;;;;4.83;1.30;;;27.80;58.10;;;;;;4938767;29;20164;-94
2022/04/12 11:54:36;;;;;;;6.83;1.57;;;28.20;58.00;;;;;;4939797;29;20176;-93
2022/04/12 11:57:05;;;;;;;5.87;1.30;;;28.50;57.30;;;;;;4948963;29;20172;-95
2022/04/12 11:59:37;;;;;;;6.40;1.20;;;29.10;56.30;;;;;;4938823;29;20212;-95
2022/04/12 12:02:05;;;;;;;4.40;1.35;;;29.50;55.20;;;;;;4940898;29;20179;-93
2022/04/12 12:04:33;;;;;;;2.92;1.33;;;29.70;55.40;;;;;;4939256;29;20632;-94
2022/04/12 12:07:01;;;;;;;4.30;1.35;;;30.20;54.80;;;;;;4939058;29;20191;-95
2022/04/12 12:09:27;;;;;;;1.90;1.20;;;30.70;54.00;;;;;;4940260;29;20172;-94
2022/04/12 12:11:57;;;;;;;4.80;1.20;;;31.00;53.60;;;;;;4940899;29;20222;-95
2022/04/12 12:14:22;;;;;;;4.72;1.50;;;30.90;53.60;;;;;;4939858;29;20196;-95
2022/04/12 12:17:08;;;;;;;2.92;1.10;;;30.90;52.70;;;;;;4939081;29;20215;-95
2022/04/12 12:19:38;;;;;;;5.57;1.30;;;30.70;52.70;;;;;;4940455;29;20259;-95
2022/04/12 12:22:09;;;;;;;3.38;1.35;;;30.60;52.80;;;;;;4940071;29;20176;-95
2022/04/12 12:24:55;;;;;;;4.95;1.00;;;30.50;52.40;;;;;;4940846;29;20183;-94
2022/04/12 12:27:31;;;;;;;2.35;0.80;;;30.00;52.90;;;;;;4938555;29;20179;-95
2022/04/12 12:30:08;;;;;;;3.63;1.02;;;30.10;53.10;;;;;;4939451;29;20176;-94
2022/04/12 12:32:36;;;;;;;6.53;1.33;;;30.40;52.50;;;;;;4939864;29;20180;-95
2022/04/12 12:35:13;;;;;;;5.15;1.13;;;30.40;52.20;;;;;;4940617;29;20228;-95
2022/04/12 12:37:40;;;;;;;3.93;1.50;;;30.10;52.30;;;;;;4940507;29;20187;-95
2022/04/12 12:40:21;;;;;;;2.57;1.17;;;29.60;52.70;;;;;;4944810;29;20215;-94
2022/04/12 12:42:48;;;;;;;3.50;1.40;;;29.60;53.20;;;;;;4943697;29;20621;-95
2022/04/12 12:45:21;;;;;;;5.47;1.63;;;29.90;53.30;;;;;;4944658;29;20211;-96
2022/04/12 12:47:53;;;;;;;2.60;1.55;;;30.10;52.40;;;;;;4944799;29;20182;-95
2022/04/12 12:50:21;;;;;;;2.13;1.13;;;30.50;52.60;;;;;;4946455;29;20183;-96
2022/04/12 12:52:48;;;;;;;3.80;1.30;;;31.20;52.00;;;;;;4945726;29;20179;-94
2022/04/12 12:55:16;;;;;;;4.22;1.40;;;31.40;51.70;;;;;;4944983;29;20569;-96
2022/04/12 12:57:50;;;;;;;6.30;1.45;;;31.40;51.70;;;;;;4948173;29;20168;-96
2022/04/12 13:00:18;;;;;;;4.30;1.25;;;31.50;51.40;;;;;;4942065;29;20207;-95
2022/04/12 13:02:45;;;;;;;3.80;1.48;;;31.40;51.90;;;;;;4941072;29;20168;-95
2022/04/12 13:05:12;;;;;;;3.10;1.40;;;31.90;51.10;;;;;;4943784;29;20274;-96
2022/04/12 13:07:40;;;;;;;5.15;1.55;;;31.60;51.00;;;;;;4951082;29;20168;-96
2022/04/12 13:10:06;;;;;;;7.10;2.95;;;31.70;51.40;;;;;;4949119;29;20176;-94
2022/04/12 13:12:32;;;;;;;5.00;1.85;;;32.40;51.10;;;;;;4954179;29;20191;-95
2022/04/12 13:14:58;;;;;;;5.78;2.80;;;33.30;50.20;;;;;;4948461;29;20243;-95
2022/04/12 13:17:24;;;;;;;10.32;2.17;;;33.60;50.00;;;;;;4939866;29;20184;-96
2022/04/12 13:19:50;;;;;;;4.65;1.58;;;33.20;50.00;;;;;;4938537;29;20224;-96
2022/04/12 13:22:15;;;;;;;4.97;1.48;;;33.20;50.30;;;;;;4940225;29;20176;-96
2022/04/12 13:24:41;;;;;;;4.10;1.60;;;33.70;49.80;;;;;;4940384;29;20168;-96
2022/04/12 13:27:08;;;;;;;4.80;1.90;;;33.80;49.70;;;;;;4942965;29;20652;-93
2022/04/12 13:29:35;;;;;;;4.75;1.27;;;34.10;49.20;;;;;;4950662;29;20200;-95
2022/04/12 13:32:01;;;;;;;7.85;2.15;;;33.80;49.00;;;;;;4943880;29;20168;-95
2022/04/12 13:34:27;;;;;;;4.38;1.70;;;33.60;49.20;;;;;;4947213;29;20214;-94
2022/04/12 13:36:52;;;;;;;3.65;1.30;;;32.50;49.60;;;;;;4959194;28;20160;-95
2022/04/12 13:39:18;;;;;;;6.45;1.33;;;32.30;49.70;;;;;;4957532;29;20172;-96
2022/04/12 13:41:44;;;;;;;4.40;1.40;;;32.20;49.80;;;;;;4950999;29;20645;-96
2022/04/12 13:44:10;;;;;;;4.18;1.38;;;32.30;50.00;;;;;;4943528;29;20179;-96
2022/04/12 13:46:37;;;;;;;4.07;1.40;;;32.20;50.10;;;;;;4941789;29;20195;-96
2022/04/12 13:49:03;;;;;;;3.65;1.27;;;32.20;50.50;;;;;;4938752;29;20206;-96
2022/04/12 13:51:29;;;;;;;4.40;1.45;;;32.00;50.00;;;;;;4939135;29;20541;-96
2022/04/12 13:53:56;;;;;;;5.93;1.58;;;31.80;50.20;;;;;;4938897;29;20168;-96
2022/04/12 13:56:22;;;;;;;4.27;1.30;;;30.90;51.80;;;;;;4940755;29;20168;-96
2022/04/12 13:58:51;;;;;;;3.50;1.43;;;30.80;51.30;;;;;;4940358;29;20190;-95
2022/04/12 14:01:17;;;;;;;5.67;1.33;;;30.50;51.60;;;;;;4941188;29;20176;-96
2022/04/12 14:03:42;;;;;;;4.60;1.40;;;30.60;51.90;;;;;;4939368;29;20183;-96
2022/04/12 14:06:08;;;;;;;5.77;1.40;;;30.60;51.40;;;;;;4940497;29;20620;-96
2022/04/12 14:08:37;;;;;;;3.45;1.20;;;30.70;51.40;;;;;;4941599;29;20175;-96
2022/04/12 14:11:03;;;;;;;5.30;1.27;;;30.80;51.30;;;;;;4942644;29;20635;-96
2022/04/12 14:13:30;;;;;;;6.40;1.40;;;30.00;52.00;;;;;;4943329;29;20679;-96
2022/04/12 14:15:56;;;;;;;9.70;1.33;;;29.40;52.60;;;;;;4943862;29;20196;-96
2022/04/12 14:18:22;;;;;;;9.17;1.47;;;29.50;52.40;;;;;;4944751;29;20535;-93
2022/04/12 14:20:48;;;;;;;6.13;1.30;;;29.70;52.30;;;;;;4947441;29;20184;-95
2022/04/12 14:23:14;;;;;;;5.50;1.33;;;29.80;52.30;;;;;;4942662;29;20195;-96
2022/04/12 14:25:40;;;;;;;4.00;1.30;;;29.40;52.80;;;;;;4939650;29;20179;-96
2022/04/12 14:28:10;;;;;;;7.30;1.40;;;29.50;52.70;;;;;;4942510;29;20227;-96
2022/04/12 14:30:37;;;;;;;4.53;1.53;;;30.20;52.30;;;;;;4939069;29;20235;-95
2022/04/12 14:33:04;;;;;;;7.27;1.43;;;30.70;51.80;;;;;;4937723;29;20195;-96
2022/04/12 14:35:31;;;;;;;5.77;1.70;;;30.40;51.80;;;;;;4938887;29;20168;-96
2022/04/12 14:37:57;;;;;;;7.18;1.60;;;30.90;51.50;;;;;;4937193;29;20578;-96
2022/04/12 14:40:23;;;;;;;6.97;1.60;;;31.60;51.10;;;;;;4937580;29;20175;-96
2022/04/12 14:42:49;;;;;;;4.95;1.50;;;32.30;50.30;;;;;;4937754;29;20178;-96
2022/04/12 14:45:14;;;;;;;4.63;1.52;;;32.50;50.10;;;;;;4937647;29;20278;-96
2022/04/12 14:47:40;;;;;;;6.00;1.35;;;32.30;50.30;;;;;;4937403;29;20199;-96
2022/04/12 14:50:06;;;;;;;5.55;1.45;;;32.00;50.10;;;;;;4937273;29;20204;-96
2022/04/12 14:52:36;;;;;;;4.75;1.38;;;31.50;50.60;;;;;;4937148;29;20176;-96
2022/04/12 14:55:03;;;;;;;3.20;1.25;;;31.20;50.90;;;;;;4937859;29;20235;-96
2022/04/12 14:57:30;;;;;;;4.83;1.53;;;30.80;51.10;;;;;;4938204;29;20168;-95
2022/04/12 14:59:57;;;;;;;5.30;1.87;;;30.10;51.80;;;;;;4937982;29;20178;-95
2022/04/12 15:02:24;;;;;;;4.67;1.37;;;29.90;52.10;;;;;;4942185;29;20164;-96
2022/04/12 15:04:50;;;;;;;8.83;1.57;;;30.10;52.30;;;;;;4940156;29;20176;-96
2022/04/12 15:07:16;;;;;;;6.17;1.53;;;30.40;51.60;;;;;;4940378;29;20647;-96
2022/04/12 15:09:42;;;;;;;4.73;1.50;;;29.70;52.00;;;;;;4939396;29;20206;-94
2022/04/12 15:12:09;;;;;;;7.43;2.17;;;28.90;52.80;;;;;;4938916;29;20567;-95
2022/04/12 15:14:35;;;;;;;4.63;1.40;;;28.10;53.50;;;;;;4938833;29;20172;-96
2022/04/12 15:17:00;;;;;;;8.23;1.90;;;28.00;54.20;;;;;;4939232;29;20215;-96
2022/04/12 15:19:27;;;;;;;4.10;1.40;;;27.60;54.60;;;;;;4939440;29;20199;-95
2022/04/12 15:21:53;;;;;;;6.20;1.20;;;27.10;55.10;;;;;;4939360;29;20238;-93
2022/04/12 15:24:24;;;;;;;4.53;1.13;;;26.70;55.70;;;;;;4938913;29;20176;-94
2022/04/12 15:26:51;;;;;;;5.30;1.40;;;26.20;56.40;;;;;;4939733;29;20175;-94
2022/04/12 15:29:16;;;;;;;5.53;1.33;;;25.80;57.00;;;;;;4940133;29;20211;-94
2022/04/12 15:31:42;;;;;;;6.30;1.40;;;25.80;57.20;;;;;;4939752;29;20574;-94
2022/04/12 15:34:08;;;;;;;7.33;1.77;;;26.20;57.00;;;;;;4939222;29;20168;-96
2022/04/12 15:36:33;;;;;;;5.90;1.33;;;26.50;56.70;;;;;;4939046;29;20196;-94
2022/04/12 15:38:59;;;;;;;4.80;1.13;;;26.40;56.20;;;;;;4938895;29;20223;-95
2022/04/12 15:41:25;;;;;;;6.40;1.57;;;25.80;56.80;;;;;;4938895;29;20633;-95
2022/04/12 15:43:50;;;;;;;4.67;1.80;;;25.70;57.40;;;;;;4938823;29;20168;-94
2022/04/12 15:46:20;;;;;;;3.83;1.60;;;25.70;57.20;;;;;;4938241;29;20261;-94
2022/04/12 15:48:46;;;;;;;5.87;1.27;;;25.50;57.70;;;;;;4938713;29;20175;-94
2022/04/12 15:51:13;;;;;;;4.77;1.57;;;25.20;58.20;;;;;;4938753;29;20232;-94
2022/04/12 15:53:40;;;;;;;5.57;1.40;;;25.20;58.30;;;;;;4938664;29;20246;-94
2022/04/12 15:56:10;;;;;;;3.77;1.43;;;25.10;58.40;;;;;;4938443;29;20176;-95
2022/04/12 15:58:37;;;;;;;5.63;1.47;;;25.00;58.70;;;;;;4938670;29;20621;-94
2022/04/12 16:01:03;;;;;;;5.43;1.40;;;24.60;59.30;;;;;;4938778;29;20187;-95
2022/04/12 16:03:28;;;;;;;4.80;1.67;;;24.20;60.00;;;;;;4938638;29;20179;-92
2022/04/12 16:05:54;;;;;;;6.53;1.30;;;24.10;60.60;;;;;;4939546;29;20180;-95
2022/04/12 16:08:20;;;;;;;5.57;1.30;;;24.30;60.50;;;;;;4939350;29;20175;-94
2022/04/12 16:10:46;;;;;;;7.97;1.57;;;24.50;60.20;;;;;;4939294;29;20554;-94
2022/04/12 16:13:11;;;;;;;7.40;1.87;;;24.40;60.40;;;;;;4939104;29;20180;-95
2022/04/12 16:15:37;;;;;;;8.90;1.50;;;24.30;60.60;;;;;;4939131;29;20235;-94
2022/04/12 16:18:03;;;;;;;8.43;1.90;;;24.20;61.00;;;;;;4939077;29;20552;-94
2022/04/12 16:20:28;;;;;;;8.67;1.83;;;24.20;60.80;;;;;;4939302;29;20177;-95
2022/04/12 16:22:54;;;;;;;6.93;1.77;;;24.30;61.00;;;;;;4939930;29;20176;-91
2022/04/12 16:25:20;;;;;;;5.43;1.60;;;24.40;60.70;;;;;;4938279;29;20179;-90
2022/04/12 16:27:46;;;;;;;5.53;1.40;;;24.30;60.80;;;;;;4938452;29;20271;-91
2022/04/12 16:30:12;;;;;;;9.40;1.53;;;24.10;61.10;;;;;;4938457;29;20218;-90
2022/04/12 16:32:39;;;;;;;10.00;2.50;;;23.80;62.00;;;;;;4938858;29;20179;-92
2022/04/12 16:35:05;;;;;;;8.23;2.17;;;23.80;62.80;;;;;;4942382;29;20176;-93
2022/04/12 16:37:31;;;;;;;8.17;2.50;;;23.60;63.80;;;;;;4943068;29;20236;-92
2022/04/12 16:39:57;;;;;;;10.10;2.60;;;23.70;64.00;;;;;;4939142;29;20168;-90
2022/04/12 16:42:22;;;;;;;8.33;2.30;;;23.60;64.00;;;;;;4938122;29;20199;-90
2022/04/12 16:44:50;;;;;;;8.97;2.37;;;23.60;64.40;;;;;;4940070;29;20516;-94
2022/04/12 16:47:16;;;;;;;7.63;2.13;;;23.50;64.90;;;;;;4940552;29;20188;-95
2022/04/12 16:49:42;;;;;;;7.73;2.50;;;23.70;64.40;;;;;;4939321;29;20267;-95
2022/04/12 16:52:08;;;;;;;7.47;2.40;;;23.90;63.80;;;;;;4939920;29;20176;-96
2022/04/12 16:54:34;;;;;;;7.47;2.13;;;23.90;63.90;;;;;;4939680;29;20538;-95
2022/04/12 16:57:01;;;;;;;5.23;2.20;;;23.60;64.60;;;;;;4935846;29;20177;-94
2022/04/12 16:59:26;;;;;;;9.90;2.40;;;23.40;65.00;;;;;;4928546;29;20180;-94
2022/04/12 17:01:52;;;;;;;7.70;2.50;;;23.40;65.00;;;;;;4920415;29;20176;-94
2022/04/12 17:04:19;;;;;;;7.10;2.30;;;23.30;64.90;;;;;;4920270;29;20165;-94
2022/04/12 17:06:44;;;;;;;9.67;2.47;;;23.30;64.80;;;;;;4920571;29;20479;-95
2022/04/12 17:09:11;;;;;;;8.60;2.10;;;23.40;64.70;;;;;;4921442;29;20200;-95
2022/04/12 17:11:37;;;;;;;6.20;2.30;;;23.30;64.70;;;;;;4921604;29;20180;-95
2022/04/12 17:14:03;;;;;;;5.17;2.37;;;23.30;64.80;;;;;;4922969;29;20176;-95
2022/04/12 17:16:32;;;;;;;5.90;2.00;;;23.20;65.00;;;;;;4927266;29;20192;-94
2022/04/12 17:18:57;;;;;;;5.33;2.13;;;22.80;65.80;;;;;;4934756;29;20179;-95
2022/04/12 17:21:23;;;;;;;6.73;2.17;;;22.50;66.30;;;;;;4929727;29;20184;-93
2022/04/12 17:23:49;;;;;;;8.73;2.37;;;22.40;66.60;;;;;;4934780;29;20191;-94
2022/04/12 17:26:14;;;;;;;8.30;2.00;;;22.60;66.10;;;;;;4930657;29;20217;-95
2022/04/12 17:28:41;;;;;;;5.93;1.93;;;22.60;65.80;;;;;;4936762;29;20179;-94
2022/04/12 17:31:06;;;;;;;7.37;2.17;;;22.60;65.70;;;;;;4944658;29;20224;-93
2022/04/12 19:40:48;;;;;;;6.50;2.10;;;20.90;72.60;;;;;;5123304;23;20545;-84
2022/04/12 19:43:13;;;;;;;9.30;2.97;;;21.00;72.30;;;;;;4914863;29;20267;-83
2022/04/12 19:45:39;;;;;;;8.87;2.53;;;20.90;72.60;;;;;;4914598;29;20300;-85
2022/04/12 19:48:10;;;;;;;7.57;2.57;;;20.90;72.80;;;;;;4917043;29;20168;-85
2022/04/12 19:50:36;;;;;;;7.93;2.23;;;20.80;73.30;;;;;;4917962;29;20193;-85
2022/04/12 19:53:02;;;;;;;9.03;2.40;;;20.80;73.10;;;;;;4918430;29;20618;-85
2022/04/12 19:55:28;;;;;;;7.43;2.30;;;20.80;73.00;;;;;;4919582;29;20182;-85
2022/04/12 19:57:54;;;;;;;10.33;2.53;;;20.80;73.10;;;;;;4919347;29;20164;-85
2022/04/12 20:00:20;;;;;;;6.63;2.40;;;20.80;73.20;;;;;;4917916;29;20215;-84
2022/04/12 20:02:46;;;;;;;10.13;2.57;;;20.70;73.10;;;;;;4918157;29;20568;-85
2022/04/12 20:05:12;;;;;;;9.33;2.70;;;20.60;73.40;;;;;;4917807;29;20207;-84
2022/04/12 20:07:38;;;;;;;8.33;2.90;;;20.50;73.70;;;;;;4917105;29;20232;-85
2022/04/12 20:10:06;;;;;;;9.00;2.50;;;20.40;74.40;;;;;;4919375;29;20306;-85
2022/04/12 20:12:33;;;;;;;6.40;2.67;;;20.40;74.40;;;;;;4917890;29;20192;-85
2022/04/12 20:14:59;;;;;;;5.97;2.57;;;20.40;74.00;;;;;;4918017;29;20232;-84
2022/04/12 20:17:27;;;;;;;10.30;2.60;;;20.40;74.10;;;;;;4917802;29;20688;-84
2022/04/12 20:19:54;;;;;;;6.90;2.50;;;20.30;74.20;;;;;;4917924;29;20180;-84
2022/04/12 20:22:24;;;;;;;7.03;2.23;;;20.30;74.20;;;;;;4917930;29;20658;-85